sensor_id;sensor_type;location;lat;lon;timestamp;P1;durP1;ratioP1;P2;durP2;ratioP2
68229;SDS011;55048;52.220;5.160;2022-09-20T00:01:27;6.50;;;0.60;;
68229;SDS011;55048;52.220;5.160;2022-09-20T00:03:56;8.60;;;0.70;;
68229;SDS011;55048;52.220;5.160;2022-09-20T00:06:24;7.88;;;0.70;;
68229;SDS011;55048;52.220;5.160;2022-09-20T00:08:51;7.00;;;0.63;;
68229;SDS011;55048;52.220;5.160;2022-09-20T00:11:21;8.93;;;0.50;;
68229;SDS011;55048;52.220;5.160;2022-09-20T00:13:53;7.03;;;0.65;;
68229;SDS011;55048;52.220;5.160;2022-09-20T00:16:24;6.68;;;0.60;;
68229;SDS011;55048;52.220;5.160;2022-09-20T00:18:55;5.65;;;0.50;;
68229;SDS011;55048;52.220;5.160;2022-09-20T00:21:23;9.32;;;0.63;;
68229;SDS011;55048;52.220;5.160;2022-09-20T00:23:50;7.65;;;0.70;;
68229;SDS011;55048;52.220;5.160;2022-09-20T00:26:16;8.15;;;0.70;;
68229;SDS011;55048;52.220;5.160;2022-09-20T00:28:42;7.22;;;0.50;;
68229;SDS011;55048;52.220;5.160;2022-09-20T00:31:08;7.57;;;0.60;;
68229;SDS011;55048;52.220;5.160;2022-09-20T00:33:35;4.15;;;0.40;;
68229;SDS011;55048;52.220;5.160;2022-09-20T00:36:19;4.80;;;0.45;;
68229;SDS011;55048;52.220;5.160;2022-09-20T00:38:44;5.82;;;0.60;;
68229;SDS011;55048;52.220;5.160;2022-09-20T00:41:10;7.32;;;0.57;;
68229;SDS011;55048;52.220;5.160;2022-09-20T00:43:36;7.90;;;0.50;;
68229;SDS011;55048;52.220;5.160;2022-09-20T00:46:03;4.57;;;0.50;;
68229;SDS011;55048;52.220;5.160;2022-09-20T00:48:30;5.82;;;0.93;;
68229;SDS011;55048;52.220;5.160;2022-09-20T00:51:02;2.30;;;0.50;;
68229;SDS011;55048;52.220;5.160;2022-09-20T00:53:38;6.32;;;0.70;;
68229;SDS011;55048;52.220;5.160;2022-09-20T00:56:09;10.23;;;0.60;;
68229;SDS011;55048;52.220;5.160;2022-09-20T00:58:41;6.32;;;0.60;;
68229;SDS011;55048;52.220;5.160;2022-09-20T01:01:11;3.92;;;0.43;;
68229;SDS011;55048;52.220;5.160;2022-09-20T01:03:36;3.83;;;0.47;;
68229;SDS011;55048;52.220;5.160;2022-09-20T01:06:06;5.38;;;0.50;;
68229;SDS011;55048;52.220;5.160;2022-09-20T01:08:34;3.63;;;0.43;;
68229;SDS011;55048;52.220;5.160;2022-09-20T01:11:00;6.03;;;0.60;;
68229;SDS011;55048;52.220;5.160;2022-09-20T01:13:26;3.97;;;0.60;;
68229;SDS011;55048;52.220;5.160;2022-09-20T01:15:52;6.22;;;0.50;;
68229;SDS011;55048;52.220;5.160;2022-09-20T01:18:18;5.65;;;0.52;;
68229;SDS011;55048;52.220;5.160;2022-09-20T01:20:46;4.57;;;0.50;;
68229;SDS011;55048;52.220;5.160;2022-09-20T01:23:20;4.75;;;0.40;;
68229;SDS011;55048;52.220;5.160;2022-09-20T01:28:40;8.80;;;0.60;;
68229;SDS011;55048;52.220;5.160;2022-09-20T01:34:04;4.22;;;0.45;;
68229;SDS011;55048;52.220;5.160;2022-09-20T01:36:38;1.88;;;0.40;;
68229;SDS011;55048;52.220;5.160;2022-09-20T01:42:01;4.55;;;0.40;;
68229;SDS011;55048;52.220;5.160;2022-09-20T01:44:35;4.20;;;0.68;;
68229;SDS011;55048;52.220;5.160;2022-09-20T01:52:43;7.30;;;0.68;;
68229;SDS011;55048;52.220;5.160;2022-09-20T01:55:34;6.30;;;0.60;;
68229;SDS011;55048;52.220;5.160;2022-09-20T02:07:20;6.22;;;0.60;;
68229;SDS011;55048;52.220;5.160;2022-09-20T02:15:28;4.43;;;0.70;;
68229;SDS011;55048;52.220;5.160;2022-09-20T02:26:21;16.13;;;1.00;;
68229;SDS011;55048;52.220;5.160;2022-09-20T02:37:22;5.43;;;0.80;;
68229;SDS011;55048;52.220;5.160;2022-09-20T02:43:01;6.32;;;0.68;;
68229;SDS011;55048;52.220;5.160;2022-09-20T02:48:35;8.57;;;0.68;;
68229;SDS011;55048;52.220;5.160;2022-09-20T02:51:17;6.85;;;0.70;;
68229;SDS011;55048;52.220;5.160;2022-09-20T02:54:32;3.83;;;0.60;;
68229;SDS011;55048;52.220;5.160;2022-09-20T02:57:47;2.03;;;0.57;;
68229;SDS011;55048;52.220;5.160;2022-09-20T02:59:55;8.40;;;1.00;;
68229;SDS011;55048;52.220;5.160;2022-09-20T03:02:39;5.95;;;0.80;;
68229;SDS011;55048;52.220;5.160;2022-09-20T03:05:31;3.42;;;0.70;;
68229;SDS011;55048;52.220;5.160;2022-09-20T03:11:05;3.53;;;0.63;;
68229;SDS011;55048;52.220;5.160;2022-09-20T03:19:01;8.73;;;0.80;;
68229;SDS011;55048;52.220;5.160;2022-09-20T03:21:58;6.45;;;0.70;;
68229;SDS011;55048;52.220;5.160;2022-09-20T03:28:02;5.15;;;0.80;;
68229;SDS011;55048;52.220;5.160;2022-09-20T03:44:23;7.22;;;0.60;;
68229;SDS011;55048;52.220;5.160;2022-09-20T03:46:58;3.75;;;0.60;;
68229;SDS011;55048;52.220;5.160;2022-09-20T03:55:18;3.92;;;0.68;;
68229;SDS011;55048;52.220;5.160;2022-09-20T04:03:53;7.03;;;0.90;;
68229;SDS011;55048;52.220;5.160;2022-09-20T04:12:19;10.18;;;0.90;;
68229;SDS011;55048;52.220;5.160;2022-09-20T04:17:58;4.28;;;0.80;;
68229;SDS011;55048;52.220;5.160;2022-09-20T04:20:45;4.80;;;0.93;;
68229;SDS011;55048;52.220;5.160;2022-09-20T04:26:08;4.90;;;0.80;;
68229;SDS011;55048;52.220;5.160;2022-09-20T04:31:44;4.55;;;0.90;;
68229;SDS011;55048;52.220;5.160;2022-09-20T04:34:27;4.53;;;0.80;;
68229;SDS011;55048;52.220;5.160;2022-09-20T04:37:26;3.70;;;0.90;;
68229;SDS011;55048;52.220;5.160;2022-09-20T04:39:58;12.20;;;0.82;;
68229;SDS011;55048;52.220;5.160;2022-09-20T04:45:15;6.00;;;0.70;;
68229;SDS011;55048;52.220;5.160;2022-09-20T04:56:27;8.05;;;0.90;;
68229;SDS011;55048;52.220;5.160;2022-09-20T04:59:09;6.20;;;0.82;;
68229;SDS011;55048;52.220;5.160;2022-09-20T05:01:59;7.10;;;0.90;;
68229;SDS011;55048;52.220;5.160;2022-09-20T05:07:40;5.38;;;0.70;;
68229;SDS011;55048;52.220;5.160;2022-09-20T05:10:24;4.38;;;0.82;;
68229;SDS011;55048;52.220;5.160;2022-09-20T05:16:04;3.45;;;0.77;;
68229;SDS011;55048;52.220;5.160;2022-09-20T05:18:45;3.13;;;0.95;;
68229;SDS011;55048;52.220;5.160;2022-09-20T05:26:45;5.07;;;1.48;;
68229;SDS011;55048;52.220;5.160;2022-09-20T05:29:24;4.25;;;0.88;;
68229;SDS011;55048;52.220;5.160;2022-09-20T05:34:51;6.25;;;0.90;;
68229;SDS011;55048;52.220;5.160;2022-09-20T05:37:39;9.68;;;0.90;;
68229;SDS011;55048;52.220;5.160;2022-09-20T05:40:48;4.30;;;1.15;;
68229;SDS011;55048;52.220;5.160;2022-09-20T05:43:31;4.75;;;1.17;;
68229;SDS011;55048;52.220;5.160;2022-09-20T05:46:04;12.30;;;1.20;;
68229;SDS011;55048;52.220;5.160;2022-09-20T05:48:37;5.18;;;1.00;;
68229;SDS011;55048;52.220;5.160;2022-09-20T05:54:12;3.30;;;1.00;;
68229;SDS011;55048;52.220;5.160;2022-09-20T05:56:44;3.42;;;1.20;;
68229;SDS011;55048;52.220;5.160;2022-09-20T05:59:42;3.72;;;1.10;;
68229;SDS011;55048;52.220;5.160;2022-09-20T06:02:17;4.78;;;1.20;;
68229;SDS011;55048;52.220;5.160;2022-09-20T06:07:45;5.00;;;1.48;;
68229;SDS011;55048;52.220;5.160;2022-09-20T06:10:36;13.48;;;2.35;;
68229;SDS011;55048;52.220;5.160;2022-09-20T06:13:22;5.43;;;2.40;;
68229;SDS011;55048;52.220;5.160;2022-09-20T06:16:00;7.82;;;2.67;;
68229;SDS011;55048;52.220;5.160;2022-09-20T06:21:38;7.57;;;2.75;;
68229;SDS011;55048;52.220;5.160;2022-09-20T06:24:19;5.25;;;2.58;;
68229;SDS011;55048;52.220;5.160;2022-09-20T06:26:48;5.95;;;2.45;;
68229;SDS011;55048;52.220;5.160;2022-09-20T06:29:18;8.75;;;2.25;;
68229;SDS011;55048;52.220;5.160;2022-09-20T06:31:53;13.90;;;2.58;;
68229;SDS011;55048;52.220;5.160;2022-09-20T06:34:18;7.20;;;1.67;;
68229;SDS011;55048;52.220;5.160;2022-09-20T06:36:50;8.18;;;1.67;;
68229;SDS011;55048;52.220;5.160;2022-09-20T06:39:43;5.65;;;1.67;;
68229;SDS011;55048;52.220;5.160;2022-09-20T06:42:34;5.00;;;1.50;;
68229;SDS011;55048;52.220;5.160;2022-09-20T06:45:00;9.10;;;1.90;;
68229;SDS011;55048;52.220;5.160;2022-09-20T06:47:25;6.00;;;1.80;;
68229;SDS011;55048;52.220;5.160;2022-09-20T06:49:51;8.50;;;1.90;;
68229;SDS011;55048;52.220;5.160;2022-09-20T06:52:18;8.40;;;2.40;;
68229;SDS011;55048;52.220;5.160;2022-09-20T06:54:46;14.73;;;3.00;;
68229;SDS011;55048;52.220;5.160;2022-09-20T06:57:14;12.45;;;3.50;;
68229;SDS011;55048;52.220;5.160;2022-09-20T07:02:09;11.20;;;3.28;;
68229;SDS011;55048;52.220;5.160;2022-09-20T07:04:35;9.18;;;2.60;;
68229;SDS011;55048;52.220;5.160;2022-09-20T07:07:01;12.50;;;2.22;;
68229;SDS011;55048;52.220;5.160;2022-09-20T07:09:31;11.60;;;2.30;;
68229;SDS011;55048;52.220;5.160;2022-09-20T07:11:56;6.32;;;1.60;;
68229;SDS011;55048;52.220;5.160;2022-09-20T07:14:25;9.63;;;2.65;;
68229;SDS011;55048;52.220;5.160;2022-09-20T07:16:52;17.40;;;3.78;;
68229;SDS011;55048;52.220;5.160;2022-09-20T07:19:18;13.77;;;2.55;;
68229;SDS011;55048;52.220;5.160;2022-09-20T07:21:43;11.98;;;1.92;;
68229;SDS011;55048;52.220;5.160;2022-09-20T07:24:09;9.20;;;2.47;;
68229;SDS011;55048;52.220;5.160;2022-09-20T07:26:34;7.57;;;1.70;;
68229;SDS011;55048;52.220;5.160;2022-09-20T07:29:01;20.23;;;1.10;;
68229;SDS011;55048;52.220;5.160;2022-09-20T07:31:27;7.20;;;0.70;;
68229;SDS011;55048;52.220;5.160;2022-09-20T07:33:53;2.92;;;0.40;;
68229;SDS011;55048;52.220;5.160;2022-09-20T07:36:19;4.72;;;0.50;;
68229;SDS011;55048;52.220;5.160;2022-09-20T07:38:46;4.07;;;0.30;;
68229;SDS011;55048;52.220;5.160;2022-09-20T07:41:15;2.08;;;0.40;;
68229;SDS011;55048;52.220;5.160;2022-09-20T07:43:43;5.25;;;0.52;;
68229;SDS011;55048;52.220;5.160;2022-09-20T07:46:09;2.15;;;0.38;;
68229;SDS011;55048;52.220;5.160;2022-09-20T07:48:37;3.78;;;0.30;;
68229;SDS011;55048;52.220;5.160;2022-09-20T07:51:04;2.30;;;0.20;;
68229;SDS011;55048;52.220;5.160;2022-09-20T07:53:31;3.90;;;0.30;;
68229;SDS011;55048;52.220;5.160;2022-09-20T07:55:58;3.17;;;0.60;;
68229;SDS011;55048;52.220;5.160;2022-09-20T07:58:25;5.82;;;0.45;;
68229;SDS011;55048;52.220;5.160;2022-09-20T08:00:52;3.25;;;0.30;;
68229;SDS011;55048;52.220;5.160;2022-09-20T08:03:23;6.22;;;0.60;;
68229;SDS011;55048;52.220;5.160;2022-09-20T08:05:50;1.65;;;0.30;;
68229;SDS011;55048;52.220;5.160;2022-09-20T08:08:16;2.15;;;0.45;;
68229;SDS011;55048;52.220;5.160;2022-09-20T08:10:44;1.10;;;0.20;;
68229;SDS011;55048;52.220;5.160;2022-09-20T08:13:11;3.83;;;0.30;;
68229;SDS011;55048;52.220;5.160;2022-09-20T08:15:37;3.33;;;0.30;;
68229;SDS011;55048;52.220;5.160;2022-09-20T08:18:03;5.30;;;0.40;;
68229;SDS011;55048;52.220;5.160;2022-09-20T08:20:29;5.93;;;0.38;;
68229;SDS011;55048;52.220;5.160;2022-09-20T08:22:57;4.95;;;0.40;;
68229;SDS011;55048;52.220;5.160;2022-09-20T08:25:22;2.10;;;0.30;;
68229;SDS011;55048;52.220;5.160;2022-09-20T08:27:52;5.63;;;0.40;;
68229;SDS011;55048;52.220;5.160;2022-09-20T08:30:17;7.25;;;0.30;;
68229;SDS011;55048;52.220;5.160;2022-09-20T08:32:43;4.57;;;0.40;;
68229;SDS011;55048;52.220;5.160;2022-09-20T08:35:08;3.45;;;0.30;;
68229;SDS011;55048;52.220;5.160;2022-09-20T08:37:34;6.57;;;0.50;;
68229;SDS011;55048;52.220;5.160;2022-09-20T08:39:59;4.15;;;0.30;;
68229;SDS011;55048;52.220;5.160;2022-09-20T08:42:34;2.00;;;0.30;;
68229;SDS011;55048;52.220;5.160;2022-09-20T08:45:04;5.93;;;0.60;;
68229;SDS011;55048;52.220;5.160;2022-09-20T08:47:36;3.58;;;0.35;;
68229;SDS011;55048;52.220;5.160;2022-09-20T08:50:09;5.63;;;0.60;;
68229;SDS011;55048;52.220;5.160;2022-09-20T08:52:36;4.40;;;0.30;;
68229;SDS011;55048;52.220;5.160;2022-09-20T08:55:14;3.00;;;0.30;;
68229;SDS011;55048;52.220;5.160;2022-09-20T08:57:40;2.28;;;0.30;;
68229;SDS011;55048;52.220;5.160;2022-09-20T09:00:09;2.65;;;0.38;;
68229;SDS011;55048;52.220;5.160;2022-09-20T09:02:41;3.42;;;0.28;;
68229;SDS011;55048;52.220;5.160;2022-09-20T09:05:15;3.90;;;0.40;;
68229;SDS011;55048;52.220;5.160;2022-09-20T09:07:57;1.05;;;0.30;;
68229;SDS011;55048;52.220;5.160;2022-09-20T09:10:37;2.58;;;0.32;;
68229;SDS011;55048;52.220;5.160;2022-09-20T09:13:04;4.32;;;0.30;;
68229;SDS011;55048;52.220;5.160;2022-09-20T09:15:32;2.95;;;0.40;;
68229;SDS011;55048;52.220;5.160;2022-09-20T09:18:00;4.60;;;0.40;;
68229;SDS011;55048;52.220;5.160;2022-09-20T09:20:25;3.45;;;0.30;;
68229;SDS011;55048;52.220;5.160;2022-09-20T09:23:05;2.65;;;0.30;;
68229;SDS011;55048;52.220;5.160;2022-09-20T09:25:36;6.28;;;0.40;;
68229;SDS011;55048;52.220;5.160;2022-09-20T09:28:11;2.67;;;0.50;;
68229;SDS011;55048;52.220;5.160;2022-09-20T09:30:40;2.38;;;0.20;;
68229;SDS011;55048;52.220;5.160;2022-09-20T09:36:05;5.40;;;0.47;;
68229;SDS011;55048;52.220;5.160;2022-09-20T09:38:36;3.47;;;0.35;;
68229;SDS011;55048;52.220;5.160;2022-09-20T09:46:47;7.65;;;0.55;;
68229;SDS011;55048;52.220;5.160;2022-09-20T09:49:24;9.60;;;0.50;;
68229;SDS011;55048;52.220;5.160;2022-09-20T09:54:34;2.70;;;0.30;;
68229;SDS011;55048;52.220;5.160;2022-09-20T09:59:59;4.72;;;0.50;;
68229;SDS011;55048;52.220;5.160;2022-09-20T10:07:39;4.43;;;0.60;;
68229;SDS011;55048;52.220;5.160;2022-09-20T10:12:51;4.28;;;0.28;;
68229;SDS011;55048;52.220;5.160;2022-09-20T10:15:42;3.78;;;0.30;;
68229;SDS011;55048;52.220;5.160;2022-09-20T10:34:35;4.78;;;0.25;;
68229;SDS011;55048;52.220;5.160;2022-09-20T10:37:14;5.35;;;0.70;;
68229;SDS011;55048;52.220;5.160;2022-09-20T10:39:42;2.35;;;0.30;;
68229;SDS011;55048;52.220;5.160;2022-09-20T10:45:27;7.85;;;0.40;;
68229;SDS011;55048;52.220;5.160;2022-09-20T10:50:44;2.58;;;0.40;;
68229;SDS011;55048;52.220;5.160;2022-09-20T10:53:21;5.40;;;0.30;;
68229;SDS011;55048;52.220;5.160;2022-09-20T11:07:08;2.08;;;0.22;;
68229;SDS011;55048;52.220;5.160;2022-09-20T11:10:05;3.38;;;1.13;;
68229;SDS011;55048;52.220;5.160;2022-09-20T11:12:41;5.72;;;0.60;;
68229;SDS011;55048;52.220;5.160;2022-09-20T11:17:56;2.30;;;0.40;;
68229;SDS011;55048;52.220;5.160;2022-09-20T11:21:07;5.30;;;0.40;;
68229;SDS011;55048;52.220;5.160;2022-09-20T11:23:50;7.80;;;0.30;;
68229;SDS011;55048;52.220;5.160;2022-09-20T11:26:27;5.47;;;0.40;;
68229;SDS011;55048;52.220;5.160;2022-09-20T11:29:07;4.57;;;0.20;;
68229;SDS011;55048;52.220;5.160;2022-09-20T11:31:44;1.85;;;0.30;;
68229;SDS011;55048;52.220;5.160;2022-09-20T11:34:15;7.07;;;0.60;;
68229;SDS011;55048;52.220;5.160;2022-09-20T11:36:56;7.85;;;0.30;;
68229;SDS011;55048;52.220;5.160;2022-09-20T11:41:54;3.28;;;0.30;;
68229;SDS011;55048;52.220;5.160;2022-09-20T11:44:24;3.90;;;0.40;;
68229;SDS011;55048;52.220;5.160;2022-09-20T11:47:01;8.25;;;0.40;;
68229;SDS011;55048;52.220;5.160;2022-09-20T11:49:41;4.10;;;0.40;;
68229;SDS011;55048;52.220;5.160;2022-09-20T12:00:48;4.25;;;0.63;;
68229;SDS011;55048;52.220;5.160;2022-09-20T12:05:58;5.22;;;0.30;;
68229;SDS011;55048;52.220;5.160;2022-09-20T12:08:33;6.43;;;0.45;;
68229;SDS011;55048;52.220;5.160;2022-09-20T12:11:02;7.53;;;0.43;;
68229;SDS011;55048;52.220;5.160;2022-09-20T12:13:33;3.22;;;0.30;;
68229;SDS011;55048;52.220;5.160;2022-09-20T12:20:58;3.88;;;0.52;;
68229;SDS011;55048;52.220;5.160;2022-09-20T12:26:06;3.15;;;0.40;;
68229;SDS011;55048;52.220;5.160;2022-09-20T12:36:32;8.30;;;0.40;;
68229;SDS011;55048;52.220;5.160;2022-09-20T12:46:59;4.78;;;0.30;;
68229;SDS011;55048;52.220;5.160;2022-09-20T13:00:46;3.53;;;0.50;;
68229;SDS011;55048;52.220;5.160;2022-09-20T13:08:29;3.58;;;0.73;;
68229;SDS011;55048;52.220;5.160;2022-09-20T13:11:19;2.30;;;0.30;;
68229;SDS011;55048;52.220;5.160;2022-09-20T13:19:14;3.90;;;0.40;;
68229;SDS011;55048;52.220;5.160;2022-09-20T13:21:55;3.22;;;0.30;;
68229;SDS011;55048;52.220;5.160;2022-09-20T13:24:24;1.33;;;0.32;;
68229;SDS011;55048;52.220;5.160;2022-09-20T13:26:59;3.85;;;0.40;;
68229;SDS011;55048;52.220;5.160;2022-09-20T13:29:31;2.13;;;0.38;;
68229;SDS011;55048;52.220;5.160;2022-09-20T13:37:38;3.15;;;0.28;;
68229;SDS011;55048;52.220;5.160;2022-09-20T13:40:16;6.50;;;0.30;;
68229;SDS011;55048;52.220;5.160;2022-09-20T13:42:44;2.92;;;0.25;;
68229;SDS011;55048;52.220;5.160;2022-09-20T13:45:12;2.80;;;0.43;;
68229;SDS011;55048;52.220;5.160;2022-09-20T13:47:41;4.65;;;0.70;;
68229;SDS011;55048;52.220;5.160;2022-09-20T13:50:27;1.38;;;0.30;;
68229;SDS011;55048;52.220;5.160;2022-09-20T13:53:01;6.07;;;0.30;;
68229;SDS011;55048;52.220;5.160;2022-09-20T13:55:37;5.25;;;0.30;;
68229;SDS011;55048;52.220;5.160;2022-09-20T13:58:05;3.63;;;0.40;;
68229;SDS011;55048;52.220;5.160;2022-09-20T14:00:34;8.00;;;0.40;;
68229;SDS011;55048;52.220;5.160;2022-09-20T14:03:02;7.03;;;0.60;;
68229;SDS011;55048;52.220;5.160;2022-09-20T14:05:28;5.43;;;0.60;;
68229;SDS011;55048;52.220;5.160;2022-09-20T14:07:55;12.90;;;0.63;;
68229;SDS011;55048;52.220;5.160;2022-09-20T14:10:31;4.53;;;0.40;;
68229;SDS011;55048;52.220;5.160;2022-09-20T14:13:00;2.28;;;0.30;;
68229;SDS011;55048;52.220;5.160;2022-09-20T14:15:30;1.67;;;0.60;;
68229;SDS011;55048;52.220;5.160;2022-09-20T14:18:00;2.63;;;0.70;;
68229;SDS011;55048;52.220;5.160;2022-09-20T14:20:28;5.82;;;0.50;;
68229;SDS011;55048;52.220;5.160;2022-09-20T14:22:54;2.63;;;0.60;;
68229;SDS011;55048;52.220;5.160;2022-09-20T14:25:21;4.95;;;0.30;;
68229;SDS011;55048;52.220;5.160;2022-09-20T14:28:03;5.90;;;0.50;;
68229;SDS011;55048;52.220;5.160;2022-09-20T14:30:41;4.38;;;0.30;;
68229;SDS011;55048;52.220;5.160;2022-09-20T14:33:10;6.38;;;0.40;;
68229;SDS011;55048;52.220;5.160;2022-09-20T14:35:45;4.38;;;0.40;;
68229;SDS011;55048;52.220;5.160;2022-09-20T14:38:14;3.13;;;0.40;;
68229;SDS011;55048;52.220;5.160;2022-09-20T14:40:43;3.92;;;0.40;;
68229;SDS011;55048;52.220;5.160;2022-09-20T14:43:22;2.85;;;0.50;;
68229;SDS011;55048;52.220;5.160;2022-09-20T14:45:51;7.47;;;0.40;;
68229;SDS011;55048;52.220;5.160;2022-09-20T14:51:07;3.65;;;0.40;;
68229;SDS011;55048;52.220;5.160;2022-09-20T14:53:40;2.92;;;0.30;;
68229;SDS011;55048;52.220;5.160;2022-09-20T14:56:10;3.47;;;0.30;;
68229;SDS011;55048;52.220;5.160;2022-09-20T15:01:25;7.30;;;0.50;;
68229;SDS011;55048;52.220;5.160;2022-09-20T15:03:51;5.00;;;0.30;;
68229;SDS011;55048;52.220;5.160;2022-09-20T15:06:17;5.65;;;0.40;;
68229;SDS011;55048;52.220;5.160;2022-09-20T15:08:43;1.17;;;0.25;;
68229;SDS011;55048;52.220;5.160;2022-09-20T15:11:15;10.80;;;0.60;;
68229;SDS011;55048;52.220;5.160;2022-09-20T15:13:42;2.90;;;0.50;;
68229;SDS011;55048;52.220;5.160;2022-09-20T15:16:07;5.10;;;0.70;;
68229;SDS011;55048;52.220;5.160;2022-09-20T15:18:38;3.10;;;0.40;;
68229;SDS011;55048;52.220;5.160;2022-09-20T15:21:05;3.35;;;0.60;;
68229;SDS011;55048;52.220;5.160;2022-09-20T15:23:31;3.55;;;0.32;;
68229;SDS011;55048;52.220;5.160;2022-09-20T15:25:57;2.30;;;0.60;;
68229;SDS011;55048;52.220;5.160;2022-09-20T15:28:22;4.53;;;0.80;;
68229;SDS011;55048;52.220;5.160;2022-09-20T15:30:48;3.13;;;0.30;;
68229;SDS011;55048;52.220;5.160;2022-09-20T15:33:15;5.20;;;0.32;;
68229;SDS011;55048;52.220;5.160;2022-09-20T15:35:42;4.70;;;0.80;;
68229;SDS011;55048;52.220;5.160;2022-09-20T15:38:09;5.07;;;0.43;;
68229;SDS011;55048;52.220;5.160;2022-09-20T15:40:39;7.13;;;0.40;;
68229;SDS011;55048;52.220;5.160;2022-09-20T15:43:12;7.10;;;0.40;;
68229;SDS011;55048;52.220;5.160;2022-09-20T15:45:47;6.18;;;0.50;;
68229;SDS011;55048;52.220;5.160;2022-09-20T15:48:15;8.35;;;0.40;;
68229;SDS011;55048;52.220;5.160;2022-09-20T15:53:34;7.43;;;0.40;;
68229;SDS011;55048;52.220;5.160;2022-09-20T15:56:02;6.30;;;0.40;;
68229;SDS011;55048;52.220;5.160;2022-09-20T15:58:30;2.38;;;0.28;;
68229;SDS011;55048;52.220;5.160;2022-09-20T16:01:04;5.57;;;0.30;;
68229;SDS011;55048;52.220;5.160;2022-09-20T16:03:32;2.67;;;0.30;;
68229;SDS011;55048;52.220;5.160;2022-09-20T16:06:01;4.78;;;0.30;;
68229;SDS011;55048;52.220;5.160;2022-09-20T16:08:32;4.60;;;0.30;;
68229;SDS011;55048;52.220;5.160;2022-09-20T16:10:59;8.23;;;0.63;;
68229;SDS011;55048;52.220;5.160;2022-09-20T16:13:25;3.72;;;0.50;;
68229;SDS011;55048;52.220;5.160;2022-09-20T16:15:58;4.57;;;0.47;;
68229;SDS011;55048;52.220;5.160;2022-09-20T16:18:25;2.22;;;0.30;;
68229;SDS011;55048;52.220;5.160;2022-09-20T16:21:12;3.25;;;0.40;;
68229;SDS011;55048;52.220;5.160;2022-09-20T16:23:40;6.18;;;0.40;;
68229;SDS011;55048;52.220;5.160;2022-09-20T16:26:07;7.82;;;0.40;;
68229;SDS011;55048;52.220;5.160;2022-09-20T16:28:46;3.75;;;0.40;;
68229;SDS011;55048;52.220;5.160;2022-09-20T16:34:11;3.25;;;0.35;;
68229;SDS011;55048;52.220;5.160;2022-09-20T16:36:47;3.70;;;0.43;;
68229;SDS011;55048;52.220;5.160;2022-09-20T16:39:15;4.93;;;0.40;;
68229;SDS011;55048;52.220;5.160;2022-09-20T16:41:42;6.15;;;0.30;;
68229;SDS011;55048;52.220;5.160;2022-09-20T16:44:09;4.13;;;0.30;;
68229;SDS011;55048;52.220;5.160;2022-09-20T16:46:35;4.50;;;0.40;;
68229;SDS011;55048;52.220;5.160;2022-09-20T16:49:01;5.65;;;0.40;;
68229;SDS011;55048;52.220;5.160;2022-09-20T16:51:31;5.13;;;0.30;;
68229;SDS011;55048;52.220;5.160;2022-09-20T16:56:29;5.85;;;0.30;;
68229;SDS011;55048;52.220;5.160;2022-09-20T16:58:58;1.55;;;0.30;;
68229;SDS011;55048;52.220;5.160;2022-09-20T17:01:25;3.08;;;0.47;;
68229;SDS011;55048;52.220;5.160;2022-09-20T17:03:50;3.47;;;0.47;;
68229;SDS011;55048;52.220;5.160;2022-09-20T17:06:16;4.72;;;0.50;;
68229;SDS011;55048;52.220;5.160;2022-09-20T17:08:43;7.10;;;0.73;;
68229;SDS011;55048;52.220;5.160;2022-09-20T17:13:41;5.35;;;0.57;;
68229;SDS011;55048;52.220;5.160;2022-09-20T17:16:10;6.03;;;0.70;;
68229;SDS011;55048;52.220;5.160;2022-09-20T17:18:40;5.22;;;0.65;;
68229;SDS011;55048;52.220;5.160;2022-09-20T17:21:13;4.38;;;0.60;;
68229;SDS011;55048;52.220;5.160;2022-09-20T17:23:44;3.70;;;0.70;;
68229;SDS011;55048;52.220;5.160;2022-09-20T17:26:12;2.30;;;0.50;;
68229;SDS011;55048;52.220;5.160;2022-09-20T17:28:42;7.30;;;0.60;;
68229;SDS011;55048;52.220;5.160;2022-09-20T17:31:09;2.47;;;0.45;;
68229;SDS011;55048;52.220;5.160;2022-09-20T17:33:36;5.45;;;0.50;;
68229;SDS011;55048;52.220;5.160;2022-09-20T17:36:02;3.78;;;0.30;;
68229;SDS011;55048;52.220;5.160;2022-09-20T17:38:29;3.30;;;0.40;;
68229;SDS011;55048;52.220;5.160;2022-09-20T17:40:58;3.95;;;0.63;;
68229;SDS011;55048;52.220;5.160;2022-09-20T17:43:28;8.20;;;0.70;;
68229;SDS011;55048;52.220;5.160;2022-09-20T17:46:02;4.85;;;0.60;;
68229;SDS011;55048;52.220;5.160;2022-09-20T17:48:29;3.28;;;0.60;;
68229;SDS011;55048;52.220;5.160;2022-09-20T17:50:55;3.65;;;0.52;;
68229;SDS011;55048;52.220;5.160;2022-09-20T17:53:21;4.88;;;0.65;;
68229;SDS011;55048;52.220;5.160;2022-09-20T17:55:53;4.20;;;0.98;;
68229;SDS011;55048;52.220;5.160;2022-09-20T17:58:19;3.85;;;0.70;;
68229;SDS011;55048;52.220;5.160;2022-09-20T18:00:45;4.68;;;0.60;;
68229;SDS011;55048;52.220;5.160;2022-09-20T18:03:10;4.38;;;0.65;;
68229;SDS011;55048;52.220;5.160;2022-09-20T18:05:35;4.93;;;0.60;;
68229;SDS011;55048;52.220;5.160;2022-09-20T18:08:01;5.57;;;0.70;;
68229;SDS011;55048;52.220;5.160;2022-09-20T18:10:27;5.47;;;0.70;;
68229;SDS011;55048;52.220;5.160;2022-09-20T18:12:53;4.53;;;1.05;;
68229;SDS011;55048;52.220;5.160;2022-09-20T18:15:18;6.18;;;1.20;;
68229;SDS011;55048;52.220;5.160;2022-09-20T18:17:43;9.07;;;1.80;;
68229;SDS011;55048;52.220;5.160;2022-09-20T18:20:09;5.78;;;1.40;;
68229;SDS011;55048;52.220;5.160;2022-09-20T18:22:34;6.25;;;1.20;;
68229;SDS011;55048;52.220;5.160;2022-09-20T18:25:01;12.60;;;1.75;;
68229;SDS011;55048;52.220;5.160;2022-09-20T18:27:26;4.70;;;1.27;;
68229;SDS011;55048;52.220;5.160;2022-09-20T18:29:53;4.10;;;1.40;;
68229;SDS011;55048;52.220;5.160;2022-09-20T18:32:18;6.30;;;1.30;;
68229;SDS011;55048;52.220;5.160;2022-09-20T18:34:43;4.93;;;1.25;;
68229;SDS011;55048;52.220;5.160;2022-09-20T18:37:09;4.60;;;2.55;;
68229;SDS011;55048;52.220;5.160;2022-09-20T18:39:34;6.93;;;3.55;;
68229;SDS011;55048;52.220;5.160;2022-09-20T18:42:01;8.88;;;3.90;;
68229;SDS011;55048;52.220;5.160;2022-09-20T18:44:27;9.18;;;3.70;;
68229;SDS011;55048;52.220;5.160;2022-09-20T18:46:57;9.88;;;3.00;;
68229;SDS011;55048;52.220;5.160;2022-09-20T18:49:25;7.68;;;3.35;;
68229;SDS011;55048;52.220;5.160;2022-09-20T18:51:50;6.97;;;2.53;;
68229;SDS011;55048;52.220;5.160;2022-09-20T18:54:16;8.35;;;2.90;;
68229;SDS011;55048;52.220;5.160;2022-09-20T18:56:45;5.05;;;2.65;;
68229;SDS011;55048;52.220;5.160;2022-09-20T19:09:52;6.72;;;2.35;;
68229;SDS011;55048;52.220;5.160;2022-09-20T19:12:30;5.28;;;2.38;;
68229;SDS011;55048;52.220;5.160;2022-09-20T19:26:32;11.82;;;3.60;;
68229;SDS011;55048;52.220;5.160;2022-09-20T19:29:03;12.32;;;3.95;;
68229;SDS011;55048;52.220;5.160;2022-09-20T19:31:51;7.65;;;3.97;;
68229;SDS011;55048;52.220;5.160;2022-09-20T19:34:20;9.90;;;3.03;;
68229;SDS011;55048;52.220;5.160;2022-09-20T19:36:48;5.65;;;2.30;;
68229;SDS011;55048;52.220;5.160;2022-09-20T19:42:26;7.07;;;1.98;;
68229;SDS011;55048;52.220;5.160;2022-09-20T19:53:03;6.90;;;1.60;;
68229;SDS011;55048;52.220;5.160;2022-09-20T19:55:30;5.80;;;1.85;;
68229;SDS011;55048;52.220;5.160;2022-09-20T19:57:56;7.13;;;1.98;;
68229;SDS011;55048;52.220;5.160;2022-09-20T20:00:23;3.85;;;1.70;;
68229;SDS011;55048;52.220;5.160;2022-09-20T20:02:49;7.47;;;1.73;;
68229;SDS011;55048;52.220;5.160;2022-09-20T20:05:15;7.53;;;1.77;;
68229;SDS011;55048;52.220;5.160;2022-09-20T20:13:19;29.85;;;14.93;;
68229;SDS011;55048;52.220;5.160;2022-09-20T20:16:14;25.65;;;12.50;;
68229;SDS011;55048;52.220;5.160;2022-09-20T20:21:59;20.10;;;9.85;;
68229;SDS011;55048;52.220;5.160;2022-09-20T20:24:50;18.70;;;7.63;;
68229;SDS011;55048;52.220;5.160;2022-09-20T20:27:19;15.32;;;6.85;;
68229;SDS011;55048;52.220;5.160;2022-09-20T20:29:45;17.48;;;8.10;;
68229;SDS011;55048;52.220;5.160;2022-09-20T20:32:11;12.07;;;5.57;;
68229;SDS011;55048;52.220;5.160;2022-09-20T20:34:36;12.38;;;4.63;;